sensor_id;sensor_type;location;lat;lon;timestamp;temperature;humidity
21849;DHT22;11089;49.852;19.700;2024-01-11T00:02:10;-6.30;1.00
21849;DHT22;11089;49.852;19.700;2024-01-11T00:05:11;-6.40;1.00
21849;DHT22;11089;49.852;19.700;2024-01-11T00:08:11;-6.40;1.00
21849;DHT22;11089;49.852;19.700;2024-01-11T00:11:12;-6.40;1.00
21849;DHT22;11089;49.852;19.700;2024-01-11T00:14:13;-6.50;1.00
21849;DHT22;11089;49.852;19.700;2024-01-11T00:17:14;-6.50;1.00
21849;DHT22;11089;49.852;19.700;2024-01-11T00:20:16;-6.60;1.00
21849;DHT22;11089;49.852;19.700;2024-01-11T00:23:17;-6.60;1.00
21849;DHT22;11089;49.852;19.700;2024-01-11T00:26:18;-6.60;1.00
21849;DHT22;11089;49.852;19.700;2024-01-11T00:29:19;-6.60;1.00
21849;DHT22;11089;49.852;19.700;2024-01-11T00:32:20;-6.60;1.00
21849;DHT22;11089;49.852;19.700;2024-01-11T00:35:24;-6.50;1.00
21849;DHT22;11089;49.852;19.700;2024-01-11T00:38:25;-6.50;1.00
21849;DHT22;11089;49.852;19.700;2024-01-11T00:41:26;-6.50;1.00
21849;DHT22;11089;49.852;19.700;2024-01-11T00:44:27;-6.40;1.00
21849;DHT22;11089;49.852;19.700;2024-01-11T00:47:28;-6.30;1.00
21849;DHT22;11089;49.852;19.700;2024-01-11T00:50:29;-6.20;1.00
21849;DHT22;11089;49.852;19.700;2024-01-11T00:53:30;-6.10;1.00
21849;DHT22;11089;49.852;19.700;2024-01-11T00:56:32;-6.00;1.00
21849;DHT22;11089;49.852;19.700;2024-01-11T00:59:33;-6.00;1.00
21849;DHT22;11089;49.852;19.700;2024-01-11T01:02:33;-5.90;1.00
21849;DHT22;11089;49.852;19.700;2024-01-11T01:05:34;-6.00;1.00
21849;DHT22;11089;49.852;19.700;2024-01-11T01:08:35;-6.10;1.00
21849;DHT22;11089;49.852;19.700;2024-01-11T01:11:36;-6.30;1.00
21849;DHT22;11089;49.852;19.700;2024-01-11T01:14:37;-6.40;1.00
21849;DHT22;11089;49.852;19.700;2024-01-11T01:17:38;-6.40;1.00
21849;DHT22;11089;49.852;19.700;2024-01-11T01:20:39;-6.50;1.00
21849;DHT22;11089;49.852;19.700;2024-01-11T01:23:40;-6.60;1.00
21849;DHT22;11089;49.852;19.700;2024-01-11T01:26:41;-6.50;1.00
21849;DHT22;11089;49.852;19.700;2024-01-11T01:29:42;-6.50;1.00
21849;DHT22;11089;49.852;19.700;2024-01-11T01:32:43;-6.50;1.00
21849;DHT22;11089;49.852;19.700;2024-01-11T01:35:43;-6.50;1.00
21849;DHT22;11089;49.852;19.700;2024-01-11T01:38:44;-6.50;1.00
21849;DHT22;11089;49.852;19.700;2024-01-11T01:41:46;-6.50;1.00
21849;DHT22;11089;49.852;19.700;2024-01-11T01:44:47;-6.50;1.00
21849;DHT22;11089;49.852;19.700;2024-01-11T01:47:48;-6.60;1.00
21849;DHT22;11089;49.852;19.700;2024-01-11T01:50:49;-6.60;1.00
21849;DHT22;11089;49.852;19.700;2024-01-11T01:53:53;-6.60;1.00
21849;DHT22;11089;49.852;19.700;2024-01-11T01:56:55;-6.60;1.00
21849;DHT22;11089;49.852;19.700;2024-01-11T01:59:57;-6.60;1.00
21849;DHT22;11089;49.852;19.700;2024-01-11T02:02:58;-6.50;1.00
21849;DHT22;11089;49.852;19.700;2024-01-11T02:05:59;-6.60;1.00
21849;DHT22;11089;49.852;19.700;2024-01-11T02:09:01;-6.70;1.00
21849;DHT22;11089;49.852;19.700;2024-01-11T02:12:05;-6.70;1.00
21849;DHT22;11089;49.852;19.700;2024-01-11T02:15:07;-6.60;1.00
21849;DHT22;11089;49.852;19.700;2024-01-11T02:18:08;-6.60;1.00
21849;DHT22;11089;49.852;19.700;2024-01-11T02:21:09;-6.50;1.00
21849;DHT22;11089;49.852;19.700;2024-01-11T02:24:12;-6.40;1.00
21849;DHT22;11089;49.852;19.700;2024-01-11T02:27:13;-6.20;1.00
21849;DHT22;11089;49.852;19.700;2024-01-11T02:30:17;-6.20;1.00
21849;DHT22;11089;49.852;19.700;2024-01-11T02:33:18;-6.20;1.00
21849;DHT22;11089;49.852;19.700;2024-01-11T02:36:21;-6.00;1.00
21849;DHT22;11089;49.852;19.700;2024-01-11T02:39:23;-6.00;1.00
21849;DHT22;11089;49.852;19.700;2024-01-11T02:42:24;-6.00;1.00
21849;DHT22;11089;49.852;19.700;2024-01-11T02:45:25;-6.10;1.00
21849;DHT22;11089;49.852;19.700;2024-01-11T02:48:29;-6.20;1.00
21849;DHT22;11089;49.852;19.700;2024-01-11T02:51:31;-6.20;1.00
21849;DHT22;11089;49.852;19.700;2024-01-11T02:54:33;-6.30;1.00
21849;DHT22;11089;49.852;19.700;2024-01-11T02:57:34;-6.40;1.00
21849;DHT22;11089;49.852;19.700;2024-01-11T03:00:35;-6.50;1.00
21849;DHT22;11089;49.852;19.700;2024-01-11T03:03:37;-6.60;1.00
21849;DHT22;11089;49.852;19.700;2024-01-11T03:06:38;-6.70;1.00
21849;DHT22;11089;49.852;19.700;2024-01-11T03:09:39;-6.70;1.00
21849;DHT22;11089;49.852;19.700;2024-01-11T03:12:40;-6.70;1.00
21849;DHT22;11089;49.852;19.700;2024-01-11T03:15:41;-6.70;1.00
21849;DHT22;11089;49.852;19.700;2024-01-11T03:18:43;-6.60;1.00
21849;DHT22;11089;49.852;19.700;2024-01-11T03:21:44;-6.60;1.00
21849;DHT22;11089;49.852;19.700;2024-01-11T03:24:46;-6.70;1.00
21849;DHT22;11089;49.852;19.700;2024-01-11T03:27:46;-7.00;1.00
21849;DHT22;11089;49.852;19.700;2024-01-11T03:30:47;-7.10;1.00
21849;DHT22;11089;49.852;19.700;2024-01-11T03:33:48;-7.10;1.00
21849;DHT22;11089;49.852;19.700;2024-01-11T03:36:50;-7.10;1.00
21849;DHT22;11089;49.852;19.700;2024-01-11T03:39:51;-7.20;1.00
21849;DHT22;11089;49.852;19.700;2024-01-11T03:42:52;-7.30;1.00
21849;DHT22;11089;49.852;19.700;2024-01-11T03:45:53;-7.30;1.00
21849;DHT22;11089;49.852;19.700;2024-01-11T03:48:54;-7.30;1.00
21849;DHT22;11089;49.852;19.700;2024-01-11T03:51:56;-7.20;1.00
21849;DHT22;11089;49.852;19.700;2024-01-11T03:54:57;-7.00;1.00
21849;DHT22;11089;49.852;19.700;2024-01-11T03:57:58;-6.90;1.00
21849;DHT22;11089;49.852;19.700;2024-01-11T04:01:00;-6.80;1.00
21849;DHT22;11089;49.852;19.700;2024-01-11T04:04:01;-6.70;1.00
21849;DHT22;11089;49.852;19.700;2024-01-11T04:07:02;-6.10;1.00
21849;DHT22;11089;49.852;19.700;2024-01-11T04:10:03;-5.70;99.90
21849;DHT22;11089;49.852;19.700;2024-01-11T04:13:07;-5.40;99.90
21849;DHT22;11089;49.852;19.700;2024-01-11T04:16:08;-5.30;99.90
21849;DHT22;11089;49.852;19.700;2024-01-11T04:19:09;-5.30;1.00
21849;DHT22;11089;49.852;19.700;2024-01-11T04:22:10;-5.50;1.00
21849;DHT22;11089;49.852;19.700;2024-01-11T04:25:12;-5.70;1.00
21849;DHT22;11089;49.852;19.700;2024-01-11T04:28:13;-5.90;1.00
21849;DHT22;11089;49.852;19.700;2024-01-11T04:31:14;-6.00;1.00
21849;DHT22;11089;49.852;19.700;2024-01-11T04:34:17;-6.00;1.00
21849;DHT22;11089;49.852;19.700;2024-01-11T04:37:18;-6.10;1.00
21849;DHT22;11089;49.852;19.700;2024-01-11T04:40:19;-6.20;1.00
21849;DHT22;11089;49.852;19.700;2024-01-11T04:43:20;-6.40;1.00
21849;DHT22;11089;49.852;19.700;2024-01-11T04:46:23;-6.50;1.00
21849;DHT22;11089;49.852;19.700;2024-01-11T04:49:24;-6.40;1.00
21849;DHT22;11089;49.852;19.700;2024-01-11T04:52:25;-6.40;1.00
21849;DHT22;11089;49.852;19.700;2024-01-11T04:55:26;-6.40;1.00
21849;DHT22;11089;49.852;19.700;2024-01-11T04:58:27;-6.60;1.00
21849;DHT22;11089;49.852;19.700;2024-01-11T05:01:28;-6.70;1.00
21849;DHT22;11089;49.852;19.700;2024-01-11T05:04:30;-6.70;1.00
21849;DHT22;11089;49.852;19.700;2024-01-11T05:07:31;-6.70;1.00
21849;DHT22;11089;49.852;19.700;2024-01-11T05:10:32;-6.50;1.00
21849;DHT22;11089;49.852;19.700;2024-01-11T05:13:33;-6.50;1.00
21849;DHT22;11089;49.852;19.700;2024-01-11T05:16:34;-6.40;99.90
21849;DHT22;11089;49.852;19.700;2024-01-11T05:19:36;-6.40;99.90
21849;DHT22;11089;49.852;19.700;2024-01-11T05:22:37;-6.30;99.90
21849;DHT22;11089;49.852;19.700;2024-01-11T05:25:38;-6.20;99.90
21849;DHT22;11089;49.852;19.700;2024-01-11T05:28:39;-6.10;99.90
21849;DHT22;11089;49.852;19.700;2024-01-11T05:31:40;-6.20;99.90
21849;DHT22;11089;49.852;19.700;2024-01-11T05:34:41;-6.30;99.90
21849;DHT22;11089;49.852;19.700;2024-01-11T05:37:42;-6.30;99.90
21849;DHT22;11089;49.852;19.700;2024-01-11T05:40:43;-6.50;99.90
21849;DHT22;11089;49.852;19.700;2024-01-11T05:43:44;-6.60;99.90
21849;DHT22;11089;49.852;19.700;2024-01-11T05:46:45;-6.20;99.90
21849;DHT22;11089;49.852;19.700;2024-01-11T05:49:45;-6.00;99.90
21849;DHT22;11089;49.852;19.700;2024-01-11T05:52:50;-6.00;99.90
21849;DHT22;11089;49.852;19.700;2024-01-11T05:55:52;-5.80;99.90
21849;DHT22;11089;49.852;19.700;2024-01-11T05:58:53;-5.80;38.60
21849;DHT22;11089;49.852;19.700;2024-01-11T06:01:53;-5.70;1.00
21849;DHT22;11089;49.852;19.700;2024-01-11T06:04:54;-5.70;36.00
21849;DHT22;11089;49.852;19.700;2024-01-11T06:07:55;-5.70;99.90
21849;DHT22;11089;49.852;19.700;2024-01-11T06:10:58;-5.70;99.90
21849;DHT22;11089;49.852;19.700;2024-01-11T06:13:59;-5.70;99.90
21849;DHT22;11089;49.852;19.700;2024-01-11T06:17:01;-5.80;99.90
21849;DHT22;11089;49.852;19.700;2024-01-11T06:20:02;-5.90;99.90
21849;DHT22;11089;49.852;19.700;2024-01-11T06:23:05;-5.90;99.90
21849;DHT22;11089;49.852;19.700;2024-01-11T06:26:05;-5.80;99.90
21849;DHT22;11089;49.852;19.700;2024-01-11T06:29:06;-5.80;99.90
21849;DHT22;11089;49.852;19.700;2024-01-11T06:32:08;-5.80;99.90
21849;DHT22;11089;49.852;19.700;2024-01-11T06:35:09;-5.90;99.90
21849;DHT22;11089;49.852;19.700;2024-01-11T06:38:10;-5.90;99.90
21849;DHT22;11089;49.852;19.700;2024-01-11T06:41:10;-5.90;99.90
21849;DHT22;11089;49.852;19.700;2024-01-11T06:44:12;-5.80;99.90
21849;DHT22;11089;49.852;19.700;2024-01-11T06:47:13;-5.70;99.90
21849;DHT22;11089;49.852;19.700;2024-01-11T06:50:14;-5.70;99.90
21849;DHT22;11089;49.852;19.700;2024-01-11T06:53:15;-5.70;99.90
21849;DHT22;11089;49.852;19.700;2024-01-11T06:56:17;-5.80;99.90
21849;DHT22;11089;49.852;19.700;2024-01-11T06:59:18;-5.80;99.90
21849;DHT22;11089;49.852;19.700;2024-01-11T07:02:19;-5.70;99.90
21849;DHT22;11089;49.852;19.700;2024-01-11T07:05:20;-5.60;99.90
21849;DHT22;11089;49.852;19.700;2024-01-11T07:08:21;-5.60;99.90
21849;DHT22;11089;49.852;19.700;2024-01-11T07:11:22;-5.70;99.90
21849;DHT22;11089;49.852;19.700;2024-01-11T07:14:23;-5.80;99.90
21849;DHT22;11089;49.852;19.700;2024-01-11T07:17:24;-5.80;99.90
21849;DHT22;11089;49.852;19.700;2024-01-11T07:20:25;-5.80;99.90
21849;DHT22;11089;49.852;19.700;2024-01-11T07:23:27;-5.70;99.90
21849;DHT22;11089;49.852;19.700;2024-01-11T07:26:28;-5.70;99.90
21849;DHT22;11089;49.852;19.700;2024-01-11T07:29:29;-5.50;96.60
21849;DHT22;11089;49.852;19.700;2024-01-11T07:32:30;-5.40;75.10
21849;DHT22;11089;49.852;19.700;2024-01-11T07:35:31;-5.40;75.70
21849;DHT22;11089;49.852;19.700;2024-01-11T07:38:32;-5.20;8.80
21849;DHT22;11089;49.852;19.700;2024-01-11T07:41:33;-5.10;23.20
21849;DHT22;11089;49.852;19.700;2024-01-11T07:44:34;-5.00;1.00
21849;DHT22;11089;49.852;19.700;2024-01-11T07:47:36;-4.90;1.00
21849;DHT22;11089;49.852;19.700;2024-01-11T07:50:39;-4.80;1.00
21849;DHT22;11089;49.852;19.700;2024-01-11T07:53:40;-4.70;10.30
21849;DHT22;11089;49.852;19.700;2024-01-11T07:56:41;-4.60;1.00
21849;DHT22;11089;49.852;19.700;2024-01-11T07:59:43;-4.60;1.00
21849;DHT22;11089;49.852;19.700;2024-01-11T08:02:44;-4.70;1.00
21849;DHT22;11089;49.852;19.700;2024-01-11T08:05:45;-4.60;1.00
21849;DHT22;11089;49.852;19.700;2024-01-11T08:08:46;-4.60;1.00
21849;DHT22;11089;49.852;19.700;2024-01-11T08:11:52;-4.60;13.70
21849;DHT22;11089;49.852;19.700;2024-01-11T08:14:54;-4.50;1.00
21849;DHT22;11089;49.852;19.700;2024-01-11T08:17:56;-4.50;1.00
21849;DHT22;11089;49.852;19.700;2024-01-11T08:20:57;-4.40;1.00
21849;DHT22;11089;49.852;19.700;2024-01-11T08:23:59;-4.30;53.10
21849;DHT22;11089;49.852;19.700;2024-01-11T08:27:01;-4.20;1.00
21849;DHT22;11089;49.852;19.700;2024-01-11T08:30:03;-4.10;1.00
21849;DHT22;11089;49.852;19.700;2024-01-11T08:33:05;-3.90;1.00
21849;DHT22;11089;49.852;19.700;2024-01-11T08:36:06;-3.80;1.00
21849;DHT22;11089;49.852;19.700;2024-01-11T08:39:07;-3.60;1.00
21849;DHT22;11089;49.852;19.700;2024-01-11T08:42:08;-3.30;1.00
21849;DHT22;11089;49.852;19.700;2024-01-11T08:45:10;-3.20;1.00
21849;DHT22;11089;49.852;19.700;2024-01-11T08:48:11;-3.00;1.00
21849;DHT22;11089;49.852;19.700;2024-01-11T08:51:12;-2.50;1.00
21849;DHT22;11089;49.852;19.700;2024-01-11T08:54:13;-2.20;1.00
21849;DHT22;11089;49.852;19.700;2024-01-11T08:57:17;-2.10;1.00
21849;DHT22;11089;49.852;19.700;2024-01-11T09:00:18;-1.90;1.00
21849;DHT22;11089;49.852;19.700;2024-01-11T09:03:19;-1.90;1.00
21849;DHT22;11089;49.852;19.700;2024-01-11T09:06:20;-1.80;1.00
21849;DHT22;11089;49.852;19.700;2024-01-11T09:09:21;-1.80;1.00
21849;DHT22;11089;49.852;19.700;2024-01-11T09:12:22;-1.70;1.00
21849;DHT22;11089;49.852;19.700;2024-01-11T09:15:23;-1.60;1.00
21849;DHT22;11089;49.852;19.700;2024-01-11T09:18:24;-1.50;1.00
21849;DHT22;11089;49.852;19.700;2024-01-11T09:21:26;-1.40;1.00
21849;DHT22;11089;49.852;19.700;2024-01-11T09:24:27;-1.50;1.00
21849;DHT22;11089;49.852;19.700;2024-01-11T09:27:28;-1.40;1.00
21849;DHT22;11089;49.852;19.700;2024-01-11T09:30:29;-1.40;1.00
21849;DHT22;11089;49.852;19.700;2024-01-11T09:33:31;-1.30;1.00
21849;DHT22;11089;49.852;19.700;2024-01-11T09:36:33;-1.20;1.00
21849;DHT22;11089;49.852;19.700;2024-01-11T09:39:35;-1.20;1.00
21849;DHT22;11089;49.852;19.700;2024-01-11T09:42:36;-1.20;1.00
21849;DHT22;11089;49.852;19.700;2024-01-11T09:45:38;-1.20;1.00
21849;DHT22;11089;49.852;19.700;2024-01-11T09:48:40;-1.20;1.00
21849;DHT22;11089;49.852;19.700;2024-01-11T09:51:46;-1.20;1.00
21849;DHT22;11089;49.852;19.700;2024-01-11T09:54:48;-1.20;1.00
21849;DHT22;11089;49.852;19.700;2024-01-11T09:57:52;-1.20;1.00
21849;DHT22;11089;49.852;19.700;2024-01-11T10:00:56;-1.10;1.00
21849;DHT22;11089;49.852;19.700;2024-01-11T10:04:00;-1.00;1.00
21849;DHT22;11089;49.852;19.700;2024-01-11T10:07:04;-1.00;1.00
21849;DHT22;11089;49.852;19.700;2024-01-11T10:10:07;-0.90;1.00
21849;DHT22;11089;49.852;19.700;2024-01-11T10:13:08;-0.90;1.00
21849;DHT22;11089;49.852;19.700;2024-01-11T10:16:10;-0.80;1.00
21849;DHT22;11089;49.852;19.700;2024-01-11T10:19:14;-0.70;1.00
21849;DHT22;11089;49.852;19.700;2024-01-11T10:22:17;-0.60;1.00
21849;DHT22;11089;49.852;19.700;2024-01-11T10:25:18;-0.50;1.00
21849;DHT22;11089;49.852;19.700;2024-01-11T10:28:19;-0.50;1.00
21849;DHT22;11089;49.852;19.700;2024-01-11T10:31:22;-0.50;1.00
21849;DHT22;11089;49.852;19.700;2024-01-11T10:34:28;-0.50;1.00
21849;DHT22;11089;49.852;19.700;2024-01-11T10:37:33;-0.40;1.00
21849;DHT22;11089;49.852;19.700;2024-01-11T10:40:34;-0.50;1.00
21849;DHT22;11089;49.852;19.700;2024-01-11T10:43:37;-0.40;1.00
21849;DHT22;11089;49.852;19.700;2024-01-11T10:46:39;-0.40;1.00
21849;DHT22;11089;49.852;19.700;2024-01-11T10:49:43;-0.40;1.00
21849;DHT22;11089;49.852;19.700;2024-01-11T10:56:05;-0.40;1.00
21849;DHT22;11089;49.852;19.700;2024-01-11T10:59:07;-0.50;1.00
21849;DHT22;11089;49.852;19.700;2024-01-11T11:02:09;-0.40;1.00
21849;DHT22;11089;49.852;19.700;2024-01-11T11:05:13;-0.40;1.00
21849;DHT22;11089;49.852;19.700;2024-01-11T11:08:17;-0.40;1.00
21849;DHT22;11089;49.852;19.700;2024-01-11T11:11:19;-0.30;1.00
21849;DHT22;11089;49.852;19.700;2024-01-11T11:14:22;-0.30;1.00
21849;DHT22;11089;49.852;19.700;2024-01-11T11:17:23;-0.20;1.00
21849;DHT22;11089;49.852;19.700;2024-01-11T11:20:25;-0.20;1.00
21849;DHT22;11089;49.852;19.700;2024-01-11T11:23:28;-0.20;1.00
21849;DHT22;11089;49.852;19.700;2024-01-11T11:26:32;-0.20;1.00
21849;DHT22;11089;49.852;19.700;2024-01-11T11:29:33;-0.20;1.00
21849;DHT22;11089;49.852;19.700;2024-01-11T11:32:38;-0.20;1.00
21849;DHT22;11089;49.852;19.700;2024-01-11T11:35:39;-0.20;1.00
21849;DHT22;11089;49.852;19.700;2024-01-11T11:38:40;-0.20;1.00
21849;DHT22;11089;49.852;19.700;2024-01-11T11:41:42;-0.20;1.00
21849;DHT22;11089;49.852;19.700;2024-01-11T11:44:52;-0.20;1.00
21849;DHT22;11089;49.852;19.700;2024-01-11T11:47:53;-0.20;1.00
21849;DHT22;11089;49.852;19.700;2024-01-11T11:51:15;-0.30;1.00
21849;DHT22;11089;49.852;19.700;2024-01-11T11:54:16;-0.30;1.00
21849;DHT22;11089;49.852;19.700;2024-01-11T11:57:18;-0.30;1.00
21849;DHT22;11089;49.852;19.700;2024-01-11T12:00:21;-0.30;1.00
21849;DHT22;11089;49.852;19.700;2024-01-11T12:03:28;-0.30;1.00
21849;DHT22;11089;49.852;19.700;2024-01-11T12:06:29;-0.30;1.00
21849;DHT22;11089;49.852;19.700;2024-01-11T12:09:30;-0.20;1.00
21849;DHT22;11089;49.852;19.700;2024-01-11T12:12:31;-0.20;1.00
21849;DHT22;11089;49.852;19.700;2024-01-11T12:15:32;-0.30;1.00
21849;DHT22;11089;49.852;19.700;2024-01-11T12:18:33;-0.30;1.00
21849;DHT22;11089;49.852;19.700;2024-01-11T12:21:34;-0.20;1.00
21849;DHT22;11089;49.852;19.700;2024-01-11T12:24:35;-0.20;1.00
21849;DHT22;11089;49.852;19.700;2024-01-11T12:27:36;-0.10;1.00
21849;DHT22;11089;49.852;19.700;2024-01-11T12:30:39;0.00;1.00
21849;DHT22;11089;49.852;19.700;2024-01-11T12:33:40;0.10;1.00
21849;DHT22;11089;49.852;19.700;2024-01-11T12:36:41;0.10;1.00
21849;DHT22;11089;49.852;19.700;2024-01-11T12:39:43;0.10;1.00
21849;DHT22;11089;49.852;19.700;2024-01-11T12:42:44;0.10;1.00
21849;DHT22;11089;49.852;19.700;2024-01-11T12:45:45;0.10;1.00
21849;DHT22;11089;49.852;19.700;2024-01-11T12:48:46;0.10;1.00
21849;DHT22;11089;49.852;19.700;2024-01-11T12:51:49;0.10;1.00
21849;DHT22;11089;49.852;19.700;2024-01-11T12:54:53;0.10;1.00
21849;DHT22;11089;49.852;19.700;2024-01-11T12:58:06;0.10;99.90
21849;DHT22;11089;49.852;19.700;2024-01-11T13:01:08;0.10;99.90
21849;DHT22;11089;49.852;19.700;2024-01-11T13:04:10;0.10;99.90
21849;DHT22;11089;49.852;19.700;2024-01-11T13:07:12;0.20;99.90
21849;DHT22;11089;49.852;19.700;2024-01-11T13:10:13;0.20;99.90
21849;DHT22;11089;49.852;19.700;2024-01-11T13:13:15;0.10;99.90
21849;DHT22;11089;49.852;19.700;2024-01-11T13:16:20;0.20;99.90
21849;DHT22;11089;49.852;19.700;2024-01-11T13:19:21;0.10;99.90
21849;DHT22;11089;49.852;19.700;2024-01-11T13:22:22;0.20;99.90
21849;DHT22;11089;49.852;19.700;2024-01-11T13:25:23;0.20;99.90
21849;DHT22;11089;49.852;19.700;2024-01-11T13:28:25;0.20;99.90
21849;DHT22;11089;49.852;19.700;2024-01-11T13:31:27;0.10;99.90
21849;DHT22;11089;49.852;19.700;2024-01-11T13:34:28;0.10;99.90
21849;DHT22;11089;49.852;19.700;2024-01-11T13:37:30;0.10;99.90
21849;DHT22;11089;49.852;19.700;2024-01-11T13:40:32;0.10;99.90
21849;DHT22;11089;49.852;19.700;2024-01-11T13:43:33;0.20;99.90
21849;DHT22;11089;49.852;19.700;2024-01-11T13:46:35;0.10;99.90
21849;DHT22;11089;49.852;19.700;2024-01-11T13:49:36;0.00;99.90
21849;DHT22;11089;49.852;19.700;2024-01-11T13:52:37;0.00;99.90
21849;DHT22;11089;49.852;19.700;2024-01-11T13:55:38;0.00;99.90
21849;DHT22;11089;49.852;19.700;2024-01-11T13:58:40;0.00;99.90
21849;DHT22;11089;49.852;19.700;2024-01-11T14:01:41;0.00;99.90
21849;DHT22;11089;49.852;19.700;2024-01-11T14:04:42;-0.10;99.90
21849;DHT22;11089;49.852;19.700;2024-01-11T14:07:43;-0.10;1.00
21849;DHT22;11089;49.852;19.700;2024-01-11T14:10:45;-0.10;1.00
21849;DHT22;11089;49.852;19.700;2024-01-11T14:13:46;-0.20;1.00
21849;DHT22;11089;49.852;19.700;2024-01-11T14:16:48;-0.20;1.00
21849;DHT22;11089;49.852;19.700;2024-01-11T14:19:49;-0.10;1.00
21849;DHT22;11089;49.852;19.700;2024-01-11T14:22:50;-0.20;1.00
21849;DHT22;11089;49.852;19.700;2024-01-11T14:25:51;-0.30;1.00
21849;DHT22;11089;49.852;19.700;2024-01-11T14:28:52;-0.30;1.00
21849;DHT22;11089;49.852;19.700;2024-01-11T14:31:55;-0.30;1.00
21849;DHT22;11089;49.852;19.700;2024-01-11T14:34:56;-0.40;1.00
21849;DHT22;11089;49.852;19.700;2024-01-11T14:37:57;-0.50;1.00
21849;DHT22;11089;49.852;19.700;2024-01-11T14:40:58;-0.50;1.00
21849;DHT22;11089;49.852;19.700;2024-01-11T14:44:00;-0.50;1.00
21849;DHT22;11089;49.852;19.700;2024-01-11T14:47:01;-0.50;1.00
21849;DHT22;11089;49.852;19.700;2024-01-11T14:50:02;-0.60;1.00
21849;DHT22;11089;49.852;19.700;2024-01-11T14:53:04;-0.60;1.00
21849;DHT22;11089;49.852;19.700;2024-01-11T14:56:06;-0.60;1.00
21849;DHT22;11089;49.852;19.700;2024-01-11T14:59:06;-0.60;1.00
21849;DHT22;11089;49.852;19.700;2024-01-11T15:02:07;-0.60;1.00
21849;DHT22;11089;49.852;19.700;2024-01-11T15:05:09;-0.70;1.00
21849;DHT22;11089;49.852;19.700;2024-01-11T15:08:10;-0.60;1.00
21849;DHT22;11089;49.852;19.700;2024-01-11T15:11:11;-0.80;1.00
21849;DHT22;11089;49.852;19.700;2024-01-11T15:14:12;-0.80;1.00
21849;DHT22;11089;49.852;19.700;2024-01-11T15:17:14;-0.90;1.00
21849;DHT22;11089;49.852;19.700;2024-01-11T15:20:15;-1.00;1.00
21849;DHT22;11089;49.852;19.700;2024-01-11T15:23:16;-1.10;1.00
21849;DHT22;11089;49.852;19.700;2024-01-11T15:26:17;-1.10;1.00
21849;DHT22;11089;49.852;19.700;2024-01-11T15:29:18;-1.20;26.90
21849;DHT22;11089;49.852;19.700;2024-01-11T15:32:18;-1.20;99.90
21849;DHT22;11089;49.852;19.700;2024-01-11T15:35:19;-1.30;99.90
21849;DHT22;11089;49.852;19.700;2024-01-11T15:38:20;-1.40;99.90
21849;DHT22;11089;49.852;19.700;2024-01-11T15:41:21;-1.50;1.00
21849;DHT22;11089;49.852;19.700;2024-01-11T15:44:22;-1.50;1.00
21849;DHT22;11089;49.852;19.700;2024-01-11T15:47:23;-1.50;1.00
21849;DHT22;11089;49.852;19.700;2024-01-11T15:50:24;-1.50;1.00
21849;DHT22;11089;49.852;19.700;2024-01-11T15:53:26;-1.50;1.00
21849;DHT22;11089;49.852;19.700;2024-01-11T15:56:27;-1.50;1.00
21849;DHT22;11089;49.852;19.700;2024-01-11T15:59:29;-1.50;1.00
21849;DHT22;11089;49.852;19.700;2024-01-11T16:02:29;-1.60;1.00
21849;DHT22;11089;49.852;19.700;2024-01-11T16:05:32;-1.60;1.00
21849;DHT22;11089;49.852;19.700;2024-01-11T16:08:33;-1.70;1.00
21849;DHT22;11089;49.852;19.700;2024-01-11T16:11:34;-1.60;1.00
21849;DHT22;11089;49.852;19.700;2024-01-11T16:14:34;-1.60;1.00
21849;DHT22;11089;49.852;19.700;2024-01-11T16:17:36;-1.70;1.00
21849;DHT22;11089;49.852;19.700;2024-01-11T16:20:37;-1.80;23.30
21849;DHT22;11089;49.852;19.700;2024-01-11T16:23:39;-1.90;99.90
21849;DHT22;11089;49.852;19.700;2024-01-11T16:26:39;-1.90;99.90
21849;DHT22;11089;49.852;19.700;2024-01-11T16:29:42;-2.00;99.90
21849;DHT22;11089;49.852;19.700;2024-01-11T16:32:43;-2.00;1.00
21849;DHT22;11089;49.852;19.700;2024-01-11T16:35:44;-2.10;1.00
21849;DHT22;11089;49.852;19.700;2024-01-11T16:38:47;-2.10;99.90
21849;DHT22;11089;49.852;19.700;2024-01-11T16:41:48;-2.20;1.00
21849;DHT22;11089;49.852;19.700;2024-01-11T16:44:48;-2.10;1.00
21849;DHT22;11089;49.852;19.700;2024-01-11T16:47:50;-2.10;99.90
21849;DHT22;11089;49.852;19.700;2024-01-11T16:50:51;-2.20;1.00
21849;DHT22;11089;49.852;19.700;2024-01-11T16:53:53;-2.10;1.00
21849;DHT22;11089;49.852;19.700;2024-01-11T16:56:54;-2.20;1.00
21849;DHT22;11089;49.852;19.700;2024-01-11T16:59:56;-2.20;1.00
21849;DHT22;11089;49.852;19.700;2024-01-11T17:02:58;-2.20;99.90
21849;DHT22;11089;49.852;19.700;2024-01-11T17:05:59;-2.30;1.00
21849;DHT22;11089;49.852;19.700;2024-01-11T17:09:01;-2.30;1.00
21849;DHT22;11089;49.852;19.700;2024-01-11T17:12:02;-2.30;1.00
21849;DHT22;11089;49.852;19.700;2024-01-11T17:15:05;-2.30;1.00
21849;DHT22;11089;49.852;19.700;2024-01-11T17:18:06;-2.30;1.00
21849;DHT22;11089;49.852;19.700;2024-01-11T17:21:07;-2.40;1.00
21849;DHT22;11089;49.852;19.700;2024-01-11T17:24:08;-2.40;99.90
21849;DHT22;11089;49.852;19.700;2024-01-11T17:27:09;-2.40;1.00
21849;DHT22;11089;49.852;19.700;2024-01-11T17:30:15;-2.40;1.00
21849;DHT22;11089;49.852;19.700;2024-01-11T17:33:16;-2.40;1.00
21849;DHT22;11089;49.852;19.700;2024-01-11T17:36:17;-2.50;1.00
21849;DHT22;11089;49.852;19.700;2024-01-11T17:39:18;-2.50;1.00
21849;DHT22;11089;49.852;19.700;2024-01-11T17:42:20;-2.50;1.00
21849;DHT22;11089;49.852;19.700;2024-01-11T17:45:21;-2.40;1.00
21849;DHT22;11089;49.852;19.700;2024-01-11T17:48:22;-2.50;1.00
21849;DHT22;11089;49.852;19.700;2024-01-11T17:51:23;-2.40;1.00
21849;DHT22;11089;49.852;19.700;2024-01-11T17:54:25;-2.40;1.00
21849;DHT22;11089;49.852;19.700;2024-01-11T17:57:26;-2.50;1.00
21849;DHT22;11089;49.852;19.700;2024-01-11T18:00:27;-2.50;1.00
21849;DHT22;11089;49.852;19.700;2024-01-11T18:03:30;-2.50;1.00
21849;DHT22;11089;49.852;19.700;2024-01-11T18:06:33;-2.40;1.00
21849;DHT22;11089;49.852;19.700;2024-01-11T18:09:34;-2.50;1.00
21849;DHT22;11089;49.852;19.700;2024-01-11T18:12:36;-2.40;99.90
21849;DHT22;11089;49.852;19.700;2024-01-11T18:15:37;-2.40;99.90
21849;DHT22;11089;49.852;19.700;2024-01-11T18:18:37;-2.30;1.00
21849;DHT22;11089;49.852;19.700;2024-01-11T18:21:39;-2.30;1.00
21849;DHT22;11089;49.852;19.700;2024-01-11T18:24:40;-2.30;1.00
21849;DHT22;11089;49.852;19.700;2024-01-11T18:27:41;-2.30;1.00
21849;DHT22;11089;49.852;19.700;2024-01-11T18:30:42;-2.30;99.90
21849;DHT22;11089;49.852;19.700;2024-01-11T18:33:43;-2.30;19.90
21849;DHT22;11089;49.852;19.700;2024-01-11T18:36:46;-2.30;99.90
21849;DHT22;11089;49.852;19.700;2024-01-11T18:39:47;-2.30;99.90
21849;DHT22;11089;49.852;19.700;2024-01-11T18:42:48;-2.40;1.00
21849;DHT22;11089;49.852;19.700;2024-01-11T18:45:49;-2.50;1.00
21849;DHT22;11089;49.852;19.700;2024-01-11T18:48:50;-2.50;1.00
21849;DHT22;11089;49.852;19.700;2024-01-11T18:51:52;-2.40;1.00
21849;DHT22;11089;49.852;19.700;2024-01-11T18:54:53;-2.40;99.90
21849;DHT22;11089;49.852;19.700;2024-01-11T18:57:55;-2.40;99.90
21849;DHT22;11089;49.852;19.700;2024-01-11T19:00:56;-2.40;1.00
21849;DHT22;11089;49.852;19.700;2024-01-11T19:03:57;-2.30;1.00
21849;DHT22;11089;49.852;19.700;2024-01-11T19:06:58;-2.40;99.90